Center Ridge, AR (72027)

2:34 PM CST on December 04, 2016 (GMT -0600)
KD5GMX | | Change Station

Elev 723 ft 35.37 °N, 92.41 °W | Updated 9 seconds ago

Overcast
Overcast
45.6 °F
Feels Like 46 °F
N
3.0
Wind Variable Wind from WSW
Gusts 3.0 mph

Today
High -- | Low -- °F
--% Chance of Precip.
Yesterday
High -- | Low -- °F
Precip. -- in
Pressure 29.99 in
Visibility 10.0 miles
Clouds Overcast 2300 ft
Windchill 46 °F
Dew Point 44 °F
Humidity 95%
Rainfall 0.09 in
Snow Depth Not available.
7:03 AM 4:57 PM
Waxing Crescent, 25% visible
METAR KCCA 042015Z AUTO 00000KT 10SM OVC023 09/07 A2999 RMK AO2
Pressure 29.99 in
Visibility 10.0 miles
Clouds Overcast 2300 ft
Windchill 46 °F
Dew Point 44 °F
Humidity 95%
Rainfall 0.09 in
Snow Depth Not available.
7:03 AM 4:57 PM
Waxing Crescent, 25% visible
METAR KCCA 042015Z AUTO 00000KT 10SM OVC023 09/07 A2999 RMK AO2

10-Day Weather Forecast

Almanac

Astronomy

Dec. 04, 2016 Rise Set
Actual Time
Civil Twilight
Nautical Twilight
Astronomical Twilight
Moon
Length of Visible Light
Length of Day
Tomorrow will be .
, % of the Moon is Illuminated

Today's Extremes

State Highs State Lows

Community

WunderPhotos

Upload Photos

1,955,667 photos uploaded!

WunderBlog® & News

Nearby

Air Quality

  Air Quality AQ Index Pollutant
Not available.

Snow Depth

Station Depth Elevation

Earthquake Activity

City Distance Mag. Time & Date
Minimum magnitude displayed is 2.5.

Coastal Water Temperatures

Place Temperature

Stations

Nearby Weather Stations

Station Location Temp. Windchill Dew Point Humidity Wind Precip. Elev Updated Type
                   

Watches & Warnings

There are currently no watches in effect.